Aérodrome :
LOGIN :

S'inscrire | Disclaimer

   EN    FR    IT 

 










Légende :    VFR   VFR Marginal   IFR   IFR Intensif   IFR Très Intensif
Visi : 
Plafond : 
>= 8 km
>= 3000ft
5 à 8 km
1000 à 3000 ft
1500m à 5 km
500 à 1000 ft
800 à 1500m
200 à 500 ft
< 800m
< 200 ft
Symboles :   Orages  Brouillard  Fortes neiges  Fortes précipitations  Vent > 20 kt
SIGMETs :   Divers  Orages  Givrage  Turbulence  Onde Orograph.  Cendres Volcan.







- Altitude de l'aérodrome : 433 ft
- Voir les cartes d'approche


LFOC - Chateaudun

DERNIER METAR :
  • 152230Z AUTO 23006KT 210V270 1200 R28/1700D BR VV/// 03/03 Q1010

METARs EXPIRÉS :
  • 152200Z AUTO 21006KT 180V250 3100 -DZ BR OVC002 03/03 Q1009
  • 152130Z AUTO 20009KT 3800 -DZ BR OVC002 02/02 Q1009
  • 152100Z AUTO 18008KT 5000 -RA BR OVC003 02/02 Q1009
  • 152030Z AUTO 17007KT 3900 -SN BR OVC002/// ///CB 01/01 Q1009
  • 152000Z AUTO 17006KT 2600 RA BR OVC002/// ///CB 01/01 Q1010

Prévision TAF périmée.
Pas de NOTAMs connus pour ce terrain.
2 SIGMETs publiés pour la FIR Paris (LFFF) :
 
Givrage fort avec pluie surfondue
LFFF SIGMET 7 VALID 152000/160000 LFPW
LFFF PARIS FIR/UIR SEV ICE (FZRA) FCST WI N5100 E00145 - N5115 E00200 - N4930 E00600 - N4900 E00445 - N4830 E00530 - N4730 E00415 - N4630 E00445 - N4630 E00400 - N4815 E00400 - N4945 E00145 - N5100 E00145 SFC/FL020 MOV E 15KT NC=
Turbulence forte
LFFF SIGMET 6 VALID 151900/152300 LFPW
LFFF PARIS FIR/UIR SEV TURB FCST WI N5000 W00015 - N5115 E00200 - N5015 E00415 - N5000 E00400 - N5000 E00145 - N4930 E00030 - N5000 W00015 SFC/FL050 MOV NE 20KT NC=



MET'MAP, la Météo Aéronautique d'un coup d'oeil ! - Copyright ORBIFLY Décembre 2007 - Disclaimer

ORBIFLY MET'MAP TEAM :

Programmation & Développement : Alexandra Zaïnal
Conception & Développement : Baudouin d'Aumeries
Co-Programmation & Développement : Marc-Olivier Méhu
Soutien technique & logistique : Manuel Goepfert

Contact : metmap@orbifly.com




SOURCES & CREDITS :

   NOAA